sensor_id;sensor_type;location;lat;lon;timestamp;P1;durP1;ratioP1;P2;durP2;ratioP2
23743;SDS011;12052;53.478;10.182;2024-02-21T00:01:45;25.33;;;9.98;;
23743;SDS011;12052;53.478;10.182;2024-02-21T00:04:10;34.90;;;9.98;;
23743;SDS011;12052;53.478;10.182;2024-02-21T00:06:36;30.20;;;9.75;;
23743;SDS011;12052;53.478;10.182;2024-02-21T00:09:01;25.48;;;10.75;;
23743;SDS011;12052;53.478;10.182;2024-02-21T00:11:27;28.73;;;10.43;;
23743;SDS011;12052;53.478;10.182;2024-02-21T00:13:53;24.63;;;10.18;;
23743;SDS011;12052;53.478;10.182;2024-02-21T00:16:19;30.88;;;10.93;;
23743;SDS011;12052;53.478;10.182;2024-02-21T00:18:44;30.20;;;10.43;;
23743;SDS011;12052;53.478;10.182;2024-02-21T00:21:10;31.70;;;11.35;;
23743;SDS011;12052;53.478;10.182;2024-02-21T00:23:42;39.33;;;12.05;;
23743;SDS011;12052;53.478;10.182;2024-02-21T00:26:11;25.13;;;10.77;;
23743;SDS011;12052;53.478;10.182;2024-02-21T00:28:40;27.77;;;10.70;;
23743;SDS011;12052;53.478;10.182;2024-02-21T00:31:06;24.33;;;11.10;;
23743;SDS011;12052;53.478;10.182;2024-02-21T00:33:31;29.05;;;12.48;;
23743;SDS011;12052;53.478;10.182;2024-02-21T00:35:57;28.15;;;10.88;;
23743;SDS011;12052;53.478;10.182;2024-02-21T00:38:22;32.25;;;10.80;;
23743;SDS011;12052;53.478;10.182;2024-02-21T00:40:48;29.08;;;11.20;;
23743;SDS011;12052;53.478;10.182;2024-02-21T00:43:13;26.67;;;11.95;;
23743;SDS011;12052;53.478;10.182;2024-02-21T00:45:39;36.58;;;10.52;;
23743;SDS011;12052;53.478;10.182;2024-02-21T00:48:04;30.58;;;11.40;;
23743;SDS011;12052;53.478;10.182;2024-02-21T00:50:30;25.38;;;10.07;;
23743;SDS011;12052;53.478;10.182;2024-02-21T00:52:56;25.27;;;9.60;;
23743;SDS011;12052;53.478;10.182;2024-02-21T00:55:21;27.75;;;10.25;;
23743;SDS011;12052;53.478;10.182;2024-02-21T00:57:47;27.10;;;10.52;;
23743;SDS011;12052;53.478;10.182;2024-02-21T01:00:13;26.98;;;11.88;;
23743;SDS011;12052;53.478;10.182;2024-02-21T01:02:39;29.15;;;10.52;;
23743;SDS011;12052;53.478;10.182;2024-02-21T01:05:04;35.03;;;10.75;;
23743;SDS011;12052;53.478;10.182;2024-02-21T01:07:30;25.17;;;10.40;;
23743;SDS011;12052;53.478;10.182;2024-02-21T01:09:56;32.78;;;11.38;;
23743;SDS011;12052;53.478;10.182;2024-02-21T01:12:21;32.28;;;11.48;;
23743;SDS011;12052;53.478;10.182;2024-02-21T01:14:47;39.38;;;12.60;;
23743;SDS011;12052;53.478;10.182;2024-02-21T01:17:14;38.40;;;12.85;;
23743;SDS011;12052;53.478;10.182;2024-02-21T01:19:40;31.40;;;11.48;;
23743;SDS011;12052;53.478;10.182;2024-02-21T01:22:05;30.73;;;12.23;;
23743;SDS011;12052;53.478;10.182;2024-02-21T01:24:31;30.83;;;13.15;;
23743;SDS011;12052;53.478;10.182;2024-02-21T01:26:57;30.48;;;12.25;;
23743;SDS011;12052;53.478;10.182;2024-02-21T01:29:22;32.85;;;12.65;;
23743;SDS011;12052;53.478;10.182;2024-02-21T01:31:48;40.92;;;12.90;;
23743;SDS011;12052;53.478;10.182;2024-02-21T01:34:13;28.90;;;12.13;;
23743;SDS011;12052;53.478;10.182;2024-02-21T01:36:39;28.52;;;12.18;;
23743;SDS011;12052;53.478;10.182;2024-02-21T01:39:06;32.47;;;13.18;;
23743;SDS011;12052;53.478;10.182;2024-02-21T01:41:32;29.05;;;11.57;;
23743;SDS011;12052;53.478;10.182;2024-02-21T01:43:57;32.78;;;12.32;;
23743;SDS011;12052;53.478;10.182;2024-02-21T01:46:23;32.60;;;12.60;;
23743;SDS011;12052;53.478;10.182;2024-02-21T01:48:56;27.42;;;12.02;;
23743;SDS011;12052;53.478;10.182;2024-02-21T01:51:25;28.33;;;12.43;;
23743;SDS011;12052;53.478;10.182;2024-02-21T01:53:51;25.05;;;10.55;;
23743;SDS011;12052;53.478;10.182;2024-02-21T01:56:19;32.67;;;12.25;;
23743;SDS011;12052;53.478;10.182;2024-02-21T01:58:45;26.70;;;11.38;;
23743;SDS011;12052;53.478;10.182;2024-02-21T02:01:12;24.15;;;11.43;;
23743;SDS011;12052;53.478;10.182;2024-02-21T02:03:37;28.40;;;11.38;;
23743;SDS011;12052;53.478;10.182;2024-02-21T02:06:04;26.80;;;11.48;;
23743;SDS011;12052;53.478;10.182;2024-02-21T02:08:31;33.65;;;11.82;;
23743;SDS011;12052;53.478;10.182;2024-02-21T02:10:57;30.38;;;11.40;;
23743;SDS011;12052;53.478;10.182;2024-02-21T02:13:22;27.90;;;12.10;;
23743;SDS011;12052;53.478;10.182;2024-02-21T02:15:48;29.58;;;11.93;;
23743;SDS011;12052;53.478;10.182;2024-02-21T02:18:15;28.77;;;12.80;;
23743;SDS011;12052;53.478;10.182;2024-02-21T02:20:41;29.40;;;11.85;;
23743;SDS011;12052;53.478;10.182;2024-02-21T02:23:16;34.30;;;12.27;;
23743;SDS011;12052;53.478;10.182;2024-02-21T02:25:46;24.58;;;11.02;;
23743;SDS011;12052;53.478;10.182;2024-02-21T02:28:14;30.38;;;11.65;;
23743;SDS011;12052;53.478;10.182;2024-02-21T02:30:40;31.92;;;13.18;;
23743;SDS011;12052;53.478;10.182;2024-02-21T02:33:05;33.55;;;12.32;;
23743;SDS011;12052;53.478;10.182;2024-02-21T02:35:31;32.92;;;13.30;;
23743;SDS011;12052;53.478;10.182;2024-02-21T02:37:57;25.10;;;12.50;;
23743;SDS011;12052;53.478;10.182;2024-02-21T02:40:23;31.02;;;13.63;;
23743;SDS011;12052;53.478;10.182;2024-02-21T02:42:49;34.60;;;12.90;;
23743;SDS011;12052;53.478;10.182;2024-02-21T02:45:16;35.83;;;14.30;;
23743;SDS011;12052;53.478;10.182;2024-02-21T02:47:42;31.48;;;13.70;;
23743;SDS011;12052;53.478;10.182;2024-02-21T02:50:10;40.28;;;14.48;;
23743;SDS011;12052;53.478;10.182;2024-02-21T02:52:36;37.88;;;15.75;;
23743;SDS011;12052;53.478;10.182;2024-02-21T02:55:02;44.10;;;15.77;;
23743;SDS011;12052;53.478;10.182;2024-02-21T02:57:29;35.80;;;14.13;;
23743;SDS011;12052;53.478;10.182;2024-02-21T02:59:55;40.72;;;14.70;;
23743;SDS011;12052;53.478;10.182;2024-02-21T03:02:20;34.38;;;15.35;;
23743;SDS011;12052;53.478;10.182;2024-02-21T03:04:46;35.15;;;14.73;;
23743;SDS011;12052;53.478;10.182;2024-02-21T03:07:11;36.83;;;14.35;;
23743;SDS011;12052;53.478;10.182;2024-02-21T03:09:38;42.97;;;14.85;;
23743;SDS011;12052;53.478;10.182;2024-02-21T03:12:05;42.03;;;15.68;;
23743;SDS011;12052;53.478;10.182;2024-02-21T03:14:31;42.35;;;14.45;;
23743;SDS011;12052;53.478;10.182;2024-02-21T03:16:58;40.75;;;14.75;;
23743;SDS011;12052;53.478;10.182;2024-02-21T03:19:24;36.42;;;13.98;;
23743;SDS011;12052;53.478;10.182;2024-02-21T03:21:50;34.17;;;15.18;;
23743;SDS011;12052;53.478;10.182;2024-02-21T03:24:16;37.28;;;14.75;;
23743;SDS011;12052;53.478;10.182;2024-02-21T03:26:42;40.75;;;14.68;;
23743;SDS011;12052;53.478;10.182;2024-02-21T03:29:07;40.95;;;14.82;;
23743;SDS011;12052;53.478;10.182;2024-02-21T03:31:36;42.70;;;15.10;;
23743;SDS011;12052;53.478;10.182;2024-02-21T03:34:02;35.63;;;14.45;;
23743;SDS011;12052;53.478;10.182;2024-02-21T03:36:28;37.28;;;14.80;;
23743;SDS011;12052;53.478;10.182;2024-02-21T03:38:54;38.30;;;14.38;;
23743;SDS011;12052;53.478;10.182;2024-02-21T03:41:20;36.08;;;14.18;;
23743;SDS011;12052;53.478;10.182;2024-02-21T03:43:46;35.25;;;14.77;;
23743;SDS011;12052;53.478;10.182;2024-02-21T03:46:11;34.55;;;13.73;;
23743;SDS011;12052;53.478;10.182;2024-02-21T03:48:37;45.17;;;14.38;;
23743;SDS011;12052;53.478;10.182;2024-02-21T03:51:02;35.97;;;15.10;;
23743;SDS011;12052;53.478;10.182;2024-02-21T03:53:28;43.35;;;14.15;;
23743;SDS011;12052;53.478;10.182;2024-02-21T03:55:55;38.30;;;14.43;;
23743;SDS011;12052;53.478;10.182;2024-02-21T03:58:21;35.80;;;14.57;;
23743;SDS011;12052;53.478;10.182;2024-02-21T04:00:47;44.40;;;15.35;;
23743;SDS011;12052;53.478;10.182;2024-02-21T04:03:13;36.67;;;13.50;;
23743;SDS011;12052;53.478;10.182;2024-02-21T04:05:38;29.65;;;13.90;;
23743;SDS011;12052;53.478;10.182;2024-02-21T04:08:04;36.67;;;13.73;;
23743;SDS011;12052;53.478;10.182;2024-02-21T04:10:30;34.35;;;13.98;;
23743;SDS011;12052;53.478;10.182;2024-02-21T04:12:56;36.30;;;13.65;;
23743;SDS011;12052;53.478;10.182;2024-02-21T04:15:21;34.97;;;14.00;;
23743;SDS011;12052;53.478;10.182;2024-02-21T04:17:47;31.10;;;13.30;;
23743;SDS011;12052;53.478;10.182;2024-02-21T04:20:14;28.63;;;12.75;;
23743;SDS011;12052;53.478;10.182;2024-02-21T04:22:42;29.23;;;12.50;;
23743;SDS011;12052;53.478;10.182;2024-02-21T04:25:09;33.38;;;13.80;;
23743;SDS011;12052;53.478;10.182;2024-02-21T04:27:35;33.30;;;13.93;;
23743;SDS011;12052;53.478;10.182;2024-02-21T04:30:02;35.97;;;13.80;;
23743;SDS011;12052;53.478;10.182;2024-02-21T04:32:28;40.08;;;13.43;;
23743;SDS011;12052;53.478;10.182;2024-02-21T04:34:53;32.47;;;12.52;;
23743;SDS011;12052;53.478;10.182;2024-02-21T04:37:19;29.48;;;12.55;;
23743;SDS011;12052;53.478;10.182;2024-02-21T04:39:45;26.85;;;12.00;;
23743;SDS011;12052;53.478;10.182;2024-02-21T04:42:11;31.83;;;12.48;;
23743;SDS011;12052;53.478;10.182;2024-02-21T04:44:37;35.78;;;12.93;;
23743;SDS011;12052;53.478;10.182;2024-02-21T04:47:03;32.28;;;13.60;;
23743;SDS011;12052;53.478;10.182;2024-02-21T04:49:29;34.97;;;13.13;;
23743;SDS011;12052;53.478;10.182;2024-02-21T04:51:54;26.08;;;12.48;;
23743;SDS011;12052;53.478;10.182;2024-02-21T04:54:20;26.50;;;12.60;;
23743;SDS011;12052;53.478;10.182;2024-02-21T04:56:46;31.15;;;11.75;;
23743;SDS011;12052;53.478;10.182;2024-02-21T04:59:11;31.00;;;12.32;;
23743;SDS011;12052;53.478;10.182;2024-02-21T05:01:37;32.03;;;13.65;;
23743;SDS011;12052;53.478;10.182;2024-02-21T05:04:02;27.27;;;12.05;;
23743;SDS011;12052;53.478;10.182;2024-02-21T05:06:28;33.63;;;11.82;;
23743;SDS011;12052;53.478;10.182;2024-02-21T05:08:54;30.75;;;12.15;;
23743;SDS011;12052;53.478;10.182;2024-02-21T05:11:20;32.70;;;13.05;;
23743;SDS011;12052;53.478;10.182;2024-02-21T05:13:46;29.92;;;11.93;;
23743;SDS011;12052;53.478;10.182;2024-02-21T05:16:12;29.67;;;12.10;;
23743;SDS011;12052;53.478;10.182;2024-02-21T05:18:38;27.77;;;12.70;;
23743;SDS011;12052;53.478;10.182;2024-02-21T05:21:05;26.48;;;11.82;;
23743;SDS011;12052;53.478;10.182;2024-02-21T05:23:30;26.23;;;12.13;;
23743;SDS011;12052;53.478;10.182;2024-02-21T05:25:56;23.50;;;10.65;;
23743;SDS011;12052;53.478;10.182;2024-02-21T05:28:21;24.25;;;10.45;;
23743;SDS011;12052;53.478;10.182;2024-02-21T05:30:47;19.77;;;9.65;;
23743;SDS011;12052;53.478;10.182;2024-02-21T05:33:13;23.85;;;10.23;;
23743;SDS011;12052;53.478;10.182;2024-02-21T05:35:46;26.65;;;11.77;;
23743;SDS011;12052;53.478;10.182;2024-02-21T05:38:12;22.08;;;10.15;;
23743;SDS011;12052;53.478;10.182;2024-02-21T05:40:37;26.90;;;10.82;;
23743;SDS011;12052;53.478;10.182;2024-02-21T05:43:03;25.35;;;10.48;;
23743;SDS011;12052;53.478;10.182;2024-02-21T05:45:29;21.20;;;9.82;;
23743;SDS011;12052;53.478;10.182;2024-02-21T05:47:54;23.10;;;9.15;;
23743;SDS011;12052;53.478;10.182;2024-02-21T05:50:22;22.70;;;9.20;;
23743;SDS011;12052;53.478;10.182;2024-02-21T05:52:48;24.92;;;9.13;;
23743;SDS011;12052;53.478;10.182;2024-02-21T05:55:17;21.52;;;10.15;;
23743;SDS011;12052;53.478;10.182;2024-02-21T05:57:43;24.05;;;8.95;;
23743;SDS011;12052;53.478;10.182;2024-02-21T06:00:08;21.52;;;9.05;;
23743;SDS011;12052;53.478;10.182;2024-02-21T06:02:34;24.45;;;9.35;;
23743;SDS011;12052;53.478;10.182;2024-02-21T06:05:00;19.83;;;8.43;;
23743;SDS011;12052;53.478;10.182;2024-02-21T06:07:26;15.80;;;8.30;;
23743;SDS011;12052;53.478;10.182;2024-02-21T06:09:51;15.57;;;8.15;;
23743;SDS011;12052;53.478;10.182;2024-02-21T06:12:17;16.27;;;7.43;;
23743;SDS011;12052;53.478;10.182;2024-02-21T06:14:43;15.68;;;7.32;;
23743;SDS011;12052;53.478;10.182;2024-02-21T06:17:08;16.75;;;7.45;;
23743;SDS011;12052;53.478;10.182;2024-02-21T06:19:34;19.52;;;7.60;;
23743;SDS011;12052;53.478;10.182;2024-02-21T06:21:59;15.55;;;6.93;;
23743;SDS011;12052;53.478;10.182;2024-02-21T06:24:25;19.40;;;8.13;;
23743;SDS011;12052;53.478;10.182;2024-02-21T06:26:50;16.77;;;7.75;;
23743;SDS011;12052;53.478;10.182;2024-02-21T06:29:16;19.27;;;7.85;;
23743;SDS011;12052;53.478;10.182;2024-02-21T06:31:42;14.35;;;6.28;;
23743;SDS011;12052;53.478;10.182;2024-02-21T06:34:07;13.02;;;6.00;;
23743;SDS011;12052;53.478;10.182;2024-02-21T06:36:33;13.65;;;6.70;;
23743;SDS011;12052;53.478;10.182;2024-02-21T06:38:58;13.07;;;6.20;;
23743;SDS011;12052;53.478;10.182;2024-02-21T06:41:24;11.50;;;6.40;;
23743;SDS011;12052;53.478;10.182;2024-02-21T06:43:50;15.13;;;6.88;;
23743;SDS011;12052;53.478;10.182;2024-02-21T06:46:23;14.27;;;6.53;;
23743;SDS011;12052;53.478;10.182;2024-02-21T06:48:49;14.07;;;5.85;;
23743;SDS011;12052;53.478;10.182;2024-02-21T06:51:15;13.13;;;6.47;;
23743;SDS011;12052;53.478;10.182;2024-02-21T06:53:41;14.07;;;6.32;;
23743;SDS011;12052;53.478;10.182;2024-02-21T06:56:07;12.35;;;6.50;;
23743;SDS011;12052;53.478;10.182;2024-02-21T06:58:33;17.52;;;7.18;;
23743;SDS011;12052;53.478;10.182;2024-02-21T07:00:58;14.05;;;6.55;;
23743;SDS011;12052;53.478;10.182;2024-02-21T07:03:24;14.27;;;7.03;;
23743;SDS011;12052;53.478;10.182;2024-02-21T07:05:50;12.30;;;6.57;;
23743;SDS011;12052;53.478;10.182;2024-02-21T07:08:15;13.90;;;6.50;;
23743;SDS011;12052;53.478;10.182;2024-02-21T07:10:41;10.38;;;5.75;;
23743;SDS011;12052;53.478;10.182;2024-02-21T07:13:06;14.15;;;6.47;;
23743;SDS011;12052;53.478;10.182;2024-02-21T07:15:32;15.85;;;6.70;;
23743;SDS011;12052;53.478;10.182;2024-02-21T07:17:58;15.40;;;6.35;;
23743;SDS011;12052;53.478;10.182;2024-02-21T07:20:24;11.82;;;6.30;;
23743;SDS011;12052;53.478;10.182;2024-02-21T07:22:49;12.32;;;6.88;;
23743;SDS011;12052;53.478;10.182;2024-02-21T07:25:15;10.57;;;5.53;;
23743;SDS011;12052;53.478;10.182;2024-02-21T07:27:41;14.13;;;6.47;;
23743;SDS011;12052;53.478;10.182;2024-02-21T07:30:08;12.05;;;5.78;;
23743;SDS011;12052;53.478;10.182;2024-02-21T07:32:34;13.80;;;6.47;;
23743;SDS011;12052;53.478;10.182;2024-02-21T07:35:00;13.57;;;6.85;;
23743;SDS011;12052;53.478;10.182;2024-02-21T07:37:25;12.65;;;6.47;;
23743;SDS011;12052;53.478;10.182;2024-02-21T07:39:51;13.00;;;5.57;;
23743;SDS011;12052;53.478;10.182;2024-02-21T07:42:17;10.48;;;5.55;;
23743;SDS011;12052;53.478;10.182;2024-02-21T07:44:42;11.30;;;6.07;;
23743;SDS011;12052;53.478;10.182;2024-02-21T07:47:08;12.07;;;4.78;;
23743;SDS011;12052;53.478;10.182;2024-02-21T07:49:40;10.60;;;4.35;;
23743;SDS011;12052;53.478;10.182;2024-02-21T07:52:06;9.82;;;4.68;;
23743;SDS011;12052;53.478;10.182;2024-02-21T07:54:32;11.80;;;4.72;;
23743;SDS011;12052;53.478;10.182;2024-02-21T07:56:58;8.52;;;4.50;;
23743;SDS011;12052;53.478;10.182;2024-02-21T07:59:23;11.32;;;5.28;;
23743;SDS011;12052;53.478;10.182;2024-02-21T08:01:49;13.02;;;5.60;;
23743;SDS011;12052;53.478;10.182;2024-02-21T08:04:15;7.28;;;3.70;;
23743;SDS011;12052;53.478;10.182;2024-02-21T08:06:40;6.53;;;4.40;;
23743;SDS011;12052;53.478;10.182;2024-02-21T08:09:06;9.35;;;4.45;;
23743;SDS011;12052;53.478;10.182;2024-02-21T08:11:31;8.50;;;3.95;;
23743;SDS011;12052;53.478;10.182;2024-02-21T08:13:57;8.43;;;4.00;;
23743;SDS011;12052;53.478;10.182;2024-02-21T08:16:23;8.93;;;4.75;;
23743;SDS011;12052;53.478;10.182;2024-02-21T08:18:48;9.52;;;3.42;;
23743;SDS011;12052;53.478;10.182;2024-02-21T08:21:14;12.00;;;4.13;;
23743;SDS011;12052;53.478;10.182;2024-02-21T08:23:39;7.07;;;3.75;;
23743;SDS011;12052;53.478;10.182;2024-02-21T08:26:05;7.32;;;3.72;;
23743;SDS011;12052;53.478;10.182;2024-02-21T08:28:30;6.82;;;3.53;;
23743;SDS011;12052;53.478;10.182;2024-02-21T08:30:56;6.65;;;3.75;;
23743;SDS011;12052;53.478;10.182;2024-02-21T08:33:22;6.80;;;3.30;;
23743;SDS011;12052;53.478;10.182;2024-02-21T08:35:50;6.00;;;3.38;;
23743;SDS011;12052;53.478;10.182;2024-02-21T08:38:16;7.32;;;2.97;;
23743;SDS011;12052;53.478;10.182;2024-02-21T08:40:42;7.78;;;3.75;;
23743;SDS011;12052;53.478;10.182;2024-02-21T08:43:07;6.50;;;3.38;;
23743;SDS011;12052;53.478;10.182;2024-02-21T08:45:33;9.45;;;3.85;;
23743;SDS011;12052;53.478;10.182;2024-02-21T08:47:58;6.72;;;3.83;;
23743;SDS011;12052;53.478;10.182;2024-02-21T08:50:24;4.78;;;3.15;;
23743;SDS011;12052;53.478;10.182;2024-02-21T08:52:50;6.22;;;3.40;;
23743;SDS011;12052;53.478;10.182;2024-02-21T08:55:16;7.32;;;3.38;;
23743;SDS011;12052;53.478;10.182;2024-02-21T08:57:41;12.25;;;3.80;;
23743;SDS011;12052;53.478;10.182;2024-02-21T09:00:07;5.95;;;3.38;;
23743;SDS011;12052;53.478;10.182;2024-02-21T09:02:41;5.15;;;2.20;;
23743;SDS011;12052;53.478;10.182;2024-02-21T09:05:09;3.58;;;1.92;;
23743;SDS011;12052;53.478;10.182;2024-02-21T09:07:38;7.72;;;1.80;;
23743;SDS011;12052;53.478;10.182;2024-02-21T09:10:03;8.27;;;1.90;;
23743;SDS011;12052;53.478;10.182;2024-02-21T09:12:29;12.23;;;2.15;;
23743;SDS011;12052;53.478;10.182;2024-02-21T09:14:55;6.57;;;1.73;;
23743;SDS011;12052;53.478;10.182;2024-02-21T09:17:21;8.20;;;2.03;;
23743;SDS011;12052;53.478;10.182;2024-02-21T09:19:47;7.05;;;2.08;;
23743;SDS011;12052;53.478;10.182;2024-02-21T09:22:13;6.20;;;1.67;;
23743;SDS011;12052;53.478;10.182;2024-02-21T09:24:39;14.75;;;2.10;;
23743;SDS011;12052;53.478;10.182;2024-02-21T09:27:05;5.78;;;2.20;;
23743;SDS011;12052;53.478;10.182;2024-02-21T09:29:31;4.30;;;2.10;;
23743;SDS011;12052;53.478;10.182;2024-02-21T09:31:58;8.15;;;1.55;;
23743;SDS011;12052;53.478;10.182;2024-02-21T09:34:24;12.35;;;2.17;;
23743;SDS011;12052;53.478;10.182;2024-02-21T09:36:50;7.28;;;2.10;;
23743;SDS011;12052;53.478;10.182;2024-02-21T09:39:15;6.72;;;2.10;;
23743;SDS011;12052;53.478;10.182;2024-02-21T09:41:45;6.20;;;2.30;;
23743;SDS011;12052;53.478;10.182;2024-02-21T09:44:17;9.38;;;2.33;;
23743;SDS011;12052;53.478;10.182;2024-02-21T09:47:03;4.22;;;2.40;;
23743;SDS011;12052;53.478;10.182;2024-02-21T09:49:34;6.68;;;2.92;;
23743;SDS011;12052;53.478;10.182;2024-02-21T09:52:06;3.83;;;2.00;;
23743;SDS011;12052;53.478;10.182;2024-02-21T09:54:35;4.57;;;2.80;;
23743;SDS011;12052;53.478;10.182;2024-02-21T09:57:01;7.07;;;2.67;;
23743;SDS011;12052;53.478;10.182;2024-02-21T09:59:28;5.80;;;3.03;;
23743;SDS011;12052;53.478;10.182;2024-02-21T10:01:56;5.95;;;3.00;;
23743;SDS011;12052;53.478;10.182;2024-02-21T10:04:24;7.90;;;3.47;;
23743;SDS011;12052;53.478;10.182;2024-02-21T10:06:49;10.05;;;3.78;;
23743;SDS011;12052;53.478;10.182;2024-02-21T10:09:22;12.18;;;5.97;;
23743;SDS011;12052;53.478;10.182;2024-02-21T10:12:12;12.88;;;5.80;;
23743;SDS011;12052;53.478;10.182;2024-02-21T10:14:38;16.15;;;6.32;;
23743;SDS011;12052;53.478;10.182;2024-02-21T10:17:03;15.75;;;6.95;;
23743;SDS011;12052;53.478;10.182;2024-02-21T10:19:34;14.52;;;6.03;;
23743;SDS011;12052;53.478;10.182;2024-02-21T10:24:28;16.15;;;7.30;;
23743;SDS011;12052;53.478;10.182;2024-02-21T10:27:01;12.73;;;6.85;;
23743;SDS011;12052;53.478;10.182;2024-02-21T10:29:29;18.80;;;6.68;;
23743;SDS011;12052;53.478;10.182;2024-02-21T10:32:04;17.27;;;7.78;;
23743;SDS011;12052;53.478;10.182;2024-02-21T10:34:37;19.92;;;7.63;;
23743;SDS011;12052;53.478;10.182;2024-02-21T10:37:04;21.77;;;8.82;;
23743;SDS011;12052;53.478;10.182;2024-02-21T10:39:34;23.48;;;9.25;;
23743;SDS011;12052;53.478;10.182;2024-02-21T10:42:03;23.48;;;9.20;;
23743;SDS011;12052;53.478;10.182;2024-02-21T10:44:29;26.92;;;10.73;;
23743;SDS011;12052;53.478;10.182;2024-02-21T10:47:00;24.23;;;11.25;;
23743;SDS011;12052;53.478;10.182;2024-02-21T10:49:38;25.45;;;11.15;;
23743;SDS011;12052;53.478;10.182;2024-02-21T10:57:26;26.10;;;9.48;;
23743;SDS011;12052;53.478;10.182;2024-02-21T10:59:52;27.30;;;9.80;;
23743;SDS011;12052;53.478;10.182;2024-02-21T11:02:19;24.63;;;10.07;;
23743;SDS011;12052;53.478;10.182;2024-02-21T11:04:45;29.85;;;10.30;;
23743;SDS011;12052;53.478;10.182;2024-02-21T11:07:12;23.60;;;8.88;;
23743;SDS011;12052;53.478;10.182;2024-02-21T11:09:39;24.17;;;9.48;;
23743;SDS011;12052;53.478;10.182;2024-02-21T11:12:05;21.33;;;9.32;;
23743;SDS011;12052;53.478;10.182;2024-02-21T11:14:32;28.30;;;10.38;;
23743;SDS011;12052;53.478;10.182;2024-02-21T11:16:58;21.08;;;8.27;;
23743;SDS011;12052;53.478;10.182;2024-02-21T11:19:25;21.70;;;9.00;;
23743;SDS011;12052;53.478;10.182;2024-02-21T11:21:51;23.08;;;9.57;;
23743;SDS011;12052;53.478;10.182;2024-02-21T11:24:28;25.88;;;9.15;;
23743;SDS011;12052;53.478;10.182;2024-02-21T11:27:19;25.52;;;8.82;;
23743;SDS011;12052;53.478;10.182;2024-02-21T11:29:55;23.08;;;9.23;;
23743;SDS011;12052;53.478;10.182;2024-02-21T11:32:22;21.45;;;7.85;;
23743;SDS011;12052;53.478;10.182;2024-02-21T11:35:01;27.88;;;8.40;;
23743;SDS011;12052;53.478;10.182;2024-02-21T11:37:30;20.90;;;8.18;;
23743;SDS011;12052;53.478;10.182;2024-02-21T11:39:59;26.45;;;8.50;;
23743;SDS011;12052;53.478;10.182;2024-02-21T11:42:28;18.35;;;8.45;;
23743;SDS011;12052;53.478;10.182;2024-02-21T11:44:55;19.23;;;8.38;;
23743;SDS011;12052;53.478;10.182;2024-02-21T11:47:25;20.70;;;7.25;;
23743;SDS011;12052;53.478;10.182;2024-02-21T11:49:53;17.40;;;7.43;;
23743;SDS011;12052;53.478;10.182;2024-02-21T11:52:22;18.75;;;8.02;;
23743;SDS011;12052;53.478;10.182;2024-02-21T11:54:50;17.90;;;7.22;;
23743;SDS011;12052;53.478;10.182;2024-02-21T11:57:17;29.45;;;8.82;;
23743;SDS011;12052;53.478;10.182;2024-02-21T11:59:44;18.15;;;8.00;;
23743;SDS011;12052;53.478;10.182;2024-02-21T12:02:10;19.67;;;8.35;;
23743;SDS011;12052;53.478;10.182;2024-02-21T12:04:36;20.70;;;8.20;;
23743;SDS011;12052;53.478;10.182;2024-02-21T12:07:02;21.38;;;8.48;;
23743;SDS011;12052;53.478;10.182;2024-02-21T12:09:30;23.50;;;8.80;;
23743;SDS011;12052;53.478;10.182;2024-02-21T12:14:29;25.52;;;8.43;;
23743;SDS011;12052;53.478;10.182;2024-02-21T12:16:56;21.25;;;7.55;;
23743;SDS011;12052;53.478;10.182;2024-02-21T12:19:22;26.13;;;8.68;;
23743;SDS011;12052;53.478;10.182;2024-02-21T12:21:48;20.30;;;8.88;;
23743;SDS011;12052;53.478;10.182;2024-02-21T12:24:15;19.63;;;8.18;;
23743;SDS011;12052;53.478;10.182;2024-02-21T12:26:48;21.05;;;8.40;;
23743;SDS011;12052;53.478;10.182;2024-02-21T12:29:20;23.00;;;8.68;;
23743;SDS011;12052;53.478;10.182;2024-02-21T12:31:47;20.55;;;9.02;;
23743;SDS011;12052;53.478;10.182;2024-02-21T12:34:12;24.15;;;8.77;;
23743;SDS011;12052;53.478;10.182;2024-02-21T12:36:42;29.90;;;9.45;;
23743;SDS011;12052;53.478;10.182;2024-02-21T12:39:12;23.33;;;9.48;;
23743;SDS011;12052;53.478;10.182;2024-02-21T12:41:37;17.95;;;8.80;;
23743;SDS011;12052;53.478;10.182;2024-02-21T12:44:04;21.10;;;9.18;;
23743;SDS011;12052;53.478;10.182;2024-02-21T12:46:36;23.95;;;8.93;;
23743;SDS011;12052;53.478;10.182;2024-02-21T12:49:02;20.52;;;9.27;;
23743;SDS011;12052;53.478;10.182;2024-02-21T12:51:29;24.25;;;9.55;;
23743;SDS011;12052;53.478;10.182;2024-02-21T12:53:55;26.25;;;9.75;;
23743;SDS011;12052;53.478;10.182;2024-02-21T12:56:21;20.63;;;10.20;;
23743;SDS011;12052;53.478;10.182;2024-02-21T12:58:47;23.90;;;10.32;;
23743;SDS011;12052;53.478;10.182;2024-02-21T13:01:13;27.63;;;10.30;;
23743;SDS011;12052;53.478;10.182;2024-02-21T13:03:38;21.30;;;9.80;;
23743;SDS011;12052;53.478;10.182;2024-02-21T13:06:04;28.05;;;11.02;;
23743;SDS011;12052;53.478;10.182;2024-02-21T13:08:32;21.80;;;11.18;;
23743;SDS011;12052;53.478;10.182;2024-02-21T13:10:59;27.17;;;11.00;;
23743;SDS011;12052;53.478;10.182;2024-02-21T13:13:25;28.30;;;11.98;;
23743;SDS011;12052;53.478;10.182;2024-02-21T13:15:50;24.10;;;12.07;;
23743;SDS011;12052;53.478;10.182;2024-02-21T13:18:16;23.45;;;11.98;;
23743;SDS011;12052;53.478;10.182;2024-02-21T13:20:41;25.33;;;12.00;;
23743;SDS011;12052;53.478;10.182;2024-02-21T13:23:07;25.23;;;11.65;;
23743;SDS011;12052;53.478;10.182;2024-02-21T13:25:32;29.58;;;12.30;;
23743;SDS011;12052;53.478;10.182;2024-02-21T13:27:58;26.50;;;12.45;;
23743;SDS011;12052;53.478;10.182;2024-02-21T13:30:24;30.38;;;12.15;;
23743;SDS011;12052;53.478;10.182;2024-02-21T13:32:50;27.20;;;11.80;;
23743;SDS011;12052;53.478;10.182;2024-02-21T13:35:16;24.25;;;11.90;;
23743;SDS011;12052;53.478;10.182;2024-02-21T13:37:42;27.20;;;11.70;;
23743;SDS011;12052;53.478;10.182;2024-02-21T13:40:08;24.23;;;10.98;;
23743;SDS011;12052;53.478;10.182;2024-02-21T13:42:34;25.48;;;11.75;;
23743;SDS011;12052;53.478;10.182;2024-02-21T13:45:00;21.92;;;10.23;;
23743;SDS011;12052;53.478;10.182;2024-02-21T13:47:26;25.48;;;10.32;;
23743;SDS011;12052;53.478;10.182;2024-02-21T13:49:52;20.73;;;10.48;;
23743;SDS011;12052;53.478;10.182;2024-02-21T13:52:18;30.65;;;11.57;;
23743;SDS011;12052;53.478;10.182;2024-02-21T13:54:46;25.75;;;11.65;;
23743;SDS011;12052;53.478;10.182;2024-02-21T13:57:11;21.00;;;10.15;;
23743;SDS011;12052;53.478;10.182;2024-02-21T13:59:37;23.17;;;11.02;;
23743;SDS011;12052;53.478;10.182;2024-02-21T14:02:04;22.80;;;10.18;;
23743;SDS011;12052;53.478;10.182;2024-02-21T14:04:32;25.38;;;11.20;;
23743;SDS011;12052;53.478;10.182;2024-02-21T14:06:57;27.13;;;10.40;;
23743;SDS011;12052;53.478;10.182;2024-02-21T14:09:23;25.60;;;11.30;;
23743;SDS011;12052;53.478;10.182;2024-02-21T14:11:49;22.48;;;10.52;;
23743;SDS011;12052;53.478;10.182;2024-02-21T14:14:14;24.48;;;10.45;;
23743;SDS011;12052;53.478;10.182;2024-02-21T14:16:40;22.08;;;9.90;;
23743;SDS011;12052;53.478;10.182;2024-02-21T14:19:06;22.75;;;10.57;;
23743;SDS011;12052;53.478;10.182;2024-02-21T14:21:33;23.33;;;9.80;;
23743;SDS011;12052;53.478;10.182;2024-02-21T14:23:59;21.88;;;9.52;;